KLAL

Lakeland Linder Regional Airport

Lakeland, Florida, USA
METAR KLAL 171450Z 34007KT 10SM SCT020 13/08 A3019
Observed Flight Rules
Dec-17 @ 14:50 UTC (48 minutes ago) Visual Flight Rules
Wind Visibility Clouds
340° at 7 knots 10 miles
  • Scattered at 2,000' AGL
Temperatures Readings
Current 13°C / 55°F
Dewpoint 8°C / 46°F
Humidity 72%
Altimeter 30.19" Hg
Pressure 1022 hPa
Elevation 43
METAR KLAL 171450Z 34007KT 10SM SCT020 13/08 A3019
Observed Flight Rules
Dec-17 @ 14:50 UTC
(48 minutes ago)
VFR
Wind Visibility
340° at 7 knots 10 miles
Clouds
  • Scattered at 2,000' AGL
Temperature Dewpoint
13°C / 55°F 8°C / 46°F
Humidity Altimeter Pressure
72% 30.19" Hg 1022 hPa